Map

Track Data

SID SEASON NUMBER BASIN SUBBASIN NAME ISO_TIME NATURE LAT LON WMO_WIND WMO_PRES WMO_AGENCY TRACK_TYPE DIST2LAND LANDFALL IFLAG USA_AGENCY USA_ATCF_ID USA_LAT USA_LON USA_RECORD USA_STATUS USA_WIND USA_PRES USA_SSHS USA_R34_NE USA_R34_SE USA_R34_SW USA_R34_NW USA_R50_NE USA_R50_SE USA_R50_SW USA_R50_NW USA_R64_NE USA_R64_SE USA_R64_SW USA_R64_NW USA_POCI USA_ROCI USA_RMW USA_EYE TOKYO_LAT TOKYO_LON TOKYO_GRADE TOKYO_WIND TOKYO_PRES TOKYO_R50_DIR TOKYO_R50_LONG TOKYO_R50_SHORT TOKYO_R30_DIR TOKYO_R30_LONG TOKYO_R30_SHORT TOKYO_LAND CMA_LAT CMA_LON CMA_CAT CMA_WIND CMA_PRES HKO_LAT HKO_LON HKO_CAT HKO_WIND HKO_PRES NEWDELHI_LAT NEWDELHI_LON NEWDELHI_GRADE NEWDELHI_WIND NEWDELHI_PRES NEWDELHI_CI NEWDELHI_DP NEWDELHI_POCI REUNION_LAT REUNION_LON REUNION_TYPE REUNION_WIND REUNION_PRES REUNION_TNUM REUNION_CI REUNION_RMW REUNION_R34_NE REUNION_R34_SE REUNION_R34_SW REUNION_R34_NW REUNION_R50_NE REUNION_R50_SE REUNION_R50_SW REUNION_R50_NW REUNION_R64_NE REUNION_R64_SE REUNION_R64_SW REUNION_R64_NW BOM_LAT BOM_LON BOM_TYPE BOM_WIND BOM_PRES BOM_TNUM BOM_CI BOM_RMW BOM_R34_NE BOM_R34_SE BOM_R34_SW BOM_R34_NW BOM_R50_NE BOM_R50_SE BOM_R50_SW BOM_R50_NW BOM_R64_NE BOM_R64_SE BOM_R64_SW BOM_R64_NW BOM_ROCI BOM_POCI BOM_EYE BOM_POS_METHOD BOM_PRES_METHOD NADI_LAT NADI_LON NADI_CAT NADI_WIND NADI_PRES WELLINGTON_LAT WELLINGTON_LON WELLINGTON_WIND WELLINGTON_PRES DS824_LAT DS824_LON DS824_STAGE DS824_WIND DS824_PRES TD9636_LAT TD9636_LON TD9636_STAGE TD9636_WIND TD9636_PRES TD9635_LAT TD9635_LON TD9635_WIND TD9635_PRES TD9635_ROCI NEUMANN_LAT NEUMANN_LON NEUMANN_CLASS NEUMANN_WIND NEUMANN_PRES MLC_LAT MLC_LON MLC_CLASS MLC_WIND MLC_PRES USA_GUST BOM_GUST BOM_GUST_PER REUNION_GUST REUNION_GUST_PER USA_SEAHGT USA_SEARAD_NE USA_SEARAD_SE USA_SEARAD_SW USA_SEARAD_NW STORM_SPEED STORM_DIR
1883345S13095 1884 39 SI WA NOT_NAMED 1883-12-11 06:00:00 NR -13.4000 95.3000 main 1300 1300 _____O________ -1 -13.4000 95.3000 99 9.90000 3 232
1883345S13095 1884 39 SI WA NOT_NAMED 1883-12-11 09:00:00 NR -13.4902 95.1756 main 1315 1315 _____P________ -1 -13.4902 95.1756 99 3 234
1883345S13095 1884 39 SI WA NOT_NAMED 1883-12-11 12:00:00 NR -13.5837 95.0463 main 1338 1338 _____P________ -1 -13.5837 95.0463 99 3 233
1883345S13095 1884 39 SI WA NOT_NAMED 1883-12-11 15:00:00 NR -13.6838 94.9074 main 1353 1353 _____P________ -1 -13.6838 94.9074 99 4 233
1883345S13095 1884 39 SI WA NOT_NAMED 1883-12-11 18:00:00 NR -13.7939 94.7541 main 1369 1369 _____P________ -1 -13.7939 94.7541 99 4 234
1883345S13095 1884 39 SI WA NOT_NAMED 1883-12-11 21:00:00 NR -13.9172 94.5816 main 1392 1392 _____P________ -1 -13.9172 94.5816 99 4 234
1883345S13095 1884 39 SI WA NOT_NAMED 1883-12-12 00:00:00 NR -14.0572 94.3850 main 1423 1423 _____P________ -1 -14.0572 94.3850 99 5 234
1883345S13095 1884 39 SI WA NOT_NAMED 1883-12-12 03:00:00 NR -14.2170 94.1595 main 1445 1445 _____P________ -1 -14.2170 94.1595 99 6 234
1883345S13095 1884 39 SI WA NOT_NAMED 1883-12-12 06:00:00 NR -14.4000 93.9000 main 1484 1484 _____O________ -1 -14.4000 93.9000 99 9.90000 7 234
1883345S13095 1884 39 SI WA NOT_NAMED 1883-12-12 09:00:00 NR -14.6086 93.6038 main 1522 1522 _____P________ -1 -14.6086 93.6038 99 8 234
1883345S13095 1884 39 SI WA NOT_NAMED 1883-12-12 12:00:00 NR -14.8422 93.2766 main 1560 1560 _____P________ -1 -14.8422 93.2766 99 8 233
1883345S13095 1884 39 SI WA NOT_NAMED 1883-12-12 15:00:00 NR -15.0995 92.9261 main 1614 1614 _____P________ -1 -15.0995 92.9261 99 9 232
1883345S13095 1884 39 SI WA NOT_NAMED 1883-12-12 18:00:00 NR -15.3794 92.5602 main 1660 1660 _____P________ -1 -15.3794 92.5602 99 9 231
1883345S13095 1884 39 SI WA NOT_NAMED 1883-12-12 21:00:00 NR -15.6805 92.1867 main 1714 1714 _____P________ -1 -15.6805 92.1867 99 10 229
1883345S13095 1884 39 SI WA NOT_NAMED 1883-12-13 00:00:00 NR -16.0016 91.8136 main 1767 1767 _____P________ -1 -16.0016 91.8136 99 10 227
1883345S13095 1884 39 SI WA NOT_NAMED 1883-12-13 03:00:00 NR -16.3418 91.4487 main 1821 1821 _____P________ -1 -16.3418 91.4487 99 10 224
1883345S13095 1884 39 SI WA NOT_NAMED 1883-12-13 06:00:00 NR -16.7000 91.1000 main 1875 1875 _____O________ -1 -16.7000 91.1000 99 9.90000 10 223
1883345S13095 1884 39 SI WA NOT_NAMED 1883-12-13 09:00:00 NR -17.0622 90.7561 main 1930 1930 _____P________ -1 -17.0622 90.7561 99 10 221
1883345S13095 1884 39 SI WA NOT_NAMED 1883-12-13 12:00:00 NR -17.4452 90.4197 main 1984 1984 _____P________ -1 -17.4452 90.4197 99 10 219
1883345S13095 1884 39 SI WA NOT_NAMED 1883-12-13 15:00:00 NR -17.8457 90.0969 main 2038 2038 _____P________ -1 -17.8457 90.0969 99 10 216
1883345S13095 1884 39 SI MM NOT_NAMED 1883-12-13 18:00:00 NR -18.2605 89.7936 main 2101 2101 _____P________ -1 -18.2605 89.7936 99 10 213
1883345S13095 1884 39 SI MM NOT_NAMED 1883-12-13 21:00:00 NR -18.6865 89.5160 main 2155 2155 _____P________ -1 -18.6865 89.5160 99 10 210
1883345S13095 1884 39 SI MM NOT_NAMED 1883-12-14 00:00:00 NR -19.1205 89.2703 main 2202 2202 _____P________ -1 -19.1205 89.2703 99 10 206
1883345S13095 1884 39 SI MM NOT_NAMED 1883-12-14 03:00:00 NR -19.5594 89.0629 main 2253 2253 _____P________ -1 -19.5594 89.0629 99 10 202
1883345S13095 1884 39 SI MM NOT_NAMED 1883-12-14 06:00:00 NR -20.0000 88.9000 main 2297 2297 _____O________ -1 -20.0000 88.9000 99 9.90000 9 196
1883345S13095 1884 39 SI MM NOT_NAMED 1883-12-14 09:00:00 NR -20.4675 88.7899 main 2340 2340 _____P________ -1 -20.4675 88.7899 99 10 190
1883345S13095 1884 39 SI MM NOT_NAMED 1883-12-14 12:00:00 NR -20.9445 88.7261 main 2376 2376 _____P________ -1 -20.9445 88.7261 99 10 185
1883345S13095 1884 39 SI MM NOT_NAMED 1883-12-14 15:00:00 NR -21.4220 88.7011 main 2412 2412 _____P________ -1 -21.4220 88.7011 99 10 0
1883345S13095 1884 39 SI MM NOT_NAMED 1883-12-14 18:00:00 NR -21.8909 88.7077 main 2448 2448 _____P________ -1 -21.8909 88.7077 99 9 178
1883345S13095 1884 39 SI MM NOT_NAMED 1883-12-14 21:00:00 NR -22.3423 88.7385 main 2478 2478 _____P________ -1 -22.3423 88.7385 99 9 176
1883345S13095 1884 39 SI MM NOT_NAMED 1883-12-15 00:00:00 NR -22.7670 88.7860 main 2501 2494 _____P________ -1 -22.7670 88.7860 99 8 173
1883345S13095 1884 39 SI MM NOT_NAMED 1883-12-15 03:00:00 NR -23.1559 88.8424 main 2491 2474 _____P________ -1 -23.1559 88.8424 99 7 172
1883345S13095 1884 39 SI MM NOT_NAMED 1883-12-15 06:00:00 NR -23.5000 88.9000 main 2474 2468 _____O________ -1 -23.5000 88.9000 99 9.90000 6 171
1883345S13095 1884 39 SI MM NOT_NAMED 1883-12-15 09:00:00 NR -23.7928 88.9524 main 2458 2453 _____P________ -1 -23.7928 88.9524 99 5 171
1883345S13095 1884 39 SI MM NOT_NAMED 1883-12-15 12:00:00 NR -24.0385 88.9989 main 2453 2449 _____P________ -1 -24.0385 88.9989 99 5 170
1883345S13095 1884 39 SI MM NOT_NAMED 1883-12-15 15:00:00 NR -24.2437 89.0402 main 2449 2435 _____P________ -1 -24.2437 89.0402 99 4 169
1883345S13095 1884 39 SI MM NOT_NAMED 1883-12-15 18:00:00 NR -24.4154 89.0773 main 2435 2431 _____P________ -1 -24.4154 89.0773 99 3 168
1883345S13095 1884 39 SI MM NOT_NAMED 1883-12-15 21:00:00 NR -24.5601 89.1110 main 2431 2429 _____P________ -1 -24.5601 89.1110 99 3 169
1883345S13095 1884 39 SI MM NOT_NAMED 1883-12-16 00:00:00 NR -24.6846 89.1421 main 2429 2418 _____P________ -1 -24.6846 89.1421 99 2 168
1883345S13095 1884 39 SI MM NOT_NAMED 1883-12-16 03:00:00 NR -24.7956 89.1715 main 2418 2416 _____P________ -1 -24.7956 89.1715 99 2 164
1883345S13095 1884 39 SI MM NOT_NAMED 1883-12-16 06:00:00 NR -24.9000 89.2000 main 2416 _____O________ -1 -24.9000 89.2000 99 9.90000 2 175

About IBTrACS Database

This database is a web-friendly format of International Best Track Archive for Climate Stewardship (IBTrACS), a global best track data archive curated by NOAA dating back to 1842.

Updated: 2021-12-01